createdAt,value
2017-07-31T00:00:11.570Z,937.34
2017-07-31T00:00:24.502Z,937.36
2017-07-31T00:00:37.442Z,937.36
2017-07-31T00:00:50.366Z,937.35
2017-07-31T00:01:03.827Z,937.36
2017-07-31T00:01:17.284Z,937.37
2017-07-31T00:01:30.247Z,937.37
2017-07-31T00:01:42.627Z,937.36
2017-07-31T00:01:55.565Z,937.36
2017-07-31T00:02:08.509Z,937.41
2017-07-31T00:02:21.955Z,937.36
2017-07-31T00:02:35.433Z,937.41
2017-07-31T00:02:48.928Z,937.39
2017-07-31T00:03:02.459Z,937.38
2017-07-31T00:03:15.442Z,937.4
2017-07-31T00:03:28.851Z,937.38
2017-07-31T00:03:42.324Z,937.39
2017-07-31T00:03:55.212Z,937.38
2017-07-31T00:04:08.602Z,937.35
2017-07-31T00:04:22.042Z,937.37
2017-07-31T00:04:35.438Z,937.37
2017-07-31T00:04:48.391Z,937.4
2017-07-31T00:05:00.811Z,937.4
2017-07-31T00:05:14.312Z,937.36
2017-07-31T00:05:27.704Z,937.4
2017-07-31T00:05:41.134Z,937.37
2017-07-31T00:05:53.532Z,937.36
2017-07-31T00:06:06.502Z,937.33
2017-07-31T00:06:19.959Z,937.37
2017-07-31T00:06:33.427Z,937.36
2017-07-31T00:06:46.840Z,937.37
2017-07-31T00:07:00.374Z,937.36
2017-07-31T00:07:15.930Z,937.4
2017-07-31T00:07:29.446Z,937.38
2017-07-31T00:07:42.442Z,937.33
2017-07-31T00:07:55.899Z,937.36
2017-07-31T00:08:08.818Z,937.38
2017-07-31T00:08:21.722Z,937.34
2017-07-31T00:08:35.207Z,937.38
2017-07-31T00:08:48.110Z,937.37
2017-07-31T00:09:01.568Z,937.37
2017-07-31T00:09:15.058Z,937.37
2017-07-31T00:09:28.512Z,937.38
2017-07-31T00:09:41.438Z,937.35
2017-07-31T00:09:53.811Z,937.36
2017-07-31T00:10:06.781Z,937.39
2017-07-31T00:10:20.262Z,937.34
2017-07-31T00:10:33.703Z,937.37
2017-07-31T00:10:47.136Z,937.35
2017-07-31T00:11:00.675Z,937.37
2017-07-31T00:11:13.565Z,937.38
2017-07-31T00:11:27.012Z,937.39
2017-07-31T00:11:40.496Z,937.35
2017-07-31T00:11:52.899Z,937.34
2017-07-31T00:12:06.424Z,937.39
2017-07-31T00:12:19.911Z,937.34
2017-07-31T00:12:33.395Z,937.35
2017-07-31T00:12:46.872Z,937.38
2017-07-31T00:12:59.865Z,937.36
2017-07-31T00:13:13.309Z,937.36
2017-07-31T00:13:26.202Z,937.35
2017-07-31T00:13:39.680Z,937.36
2017-07-31T00:13:52.626Z,937.36
2017-07-31T00:14:05.039Z,937.35
2017-07-31T00:14:18.486Z,937.38
2017-07-31T00:14:31.931Z,937.35
2017-07-31T00:14:44.392Z,937.37
2017-07-31T00:14:56.311Z,937.36
2017-07-31T00:15:09.214Z,937.38
2017-07-31T00:15:22.702Z,937.34
2017-07-31T00:15:36.193Z,937.37
2017-07-31T00:15:49.731Z,937.35
2017-07-31T00:16:03.174Z,937.36
2017-07-31T00:16:16.687Z,937.32
2017-07-31T00:16:30.163Z,937.34
2017-07-31T00:16:43.099Z,937.37
2017-07-31T00:16:56.511Z,937.33
2017-07-31T00:17:10.043Z,937.32
2017-07-31T00:17:23.491Z,937.34
2017-07-31T00:17:36.887Z,937.36
2017-07-31T00:17:50.307Z,937.33
2017-07-31T00:18:03.768Z,937.35
2017-07-31T00:18:17.216Z,937.35
2017-07-31T00:18:30.708Z,937.34
2017-07-31T00:18:44.196Z,937.33
2017-07-31T00:18:57.704Z,937.37
2017-07-31T00:19:10.666Z,937.34
2017-07-31T00:19:24.132Z,937.31
2017-07-31T00:19:37.719Z,937.31
2017-07-31T00:19:51.198Z,937.36
2017-07-31T00:20:03.679Z,937.34
2017-07-31T00:20:16.646Z,937.33
2017-07-31T00:20:29.625Z,937.32
2017-07-31T00:20:42.552Z,937.34
2017-07-31T00:20:56.016Z,937.35
2017-07-31T00:21:09.436Z,937.35
2017-07-31T00:21:22.374Z,937.35
2017-07-31T00:21:35.366Z,937.32
2017-07-31T00:21:48.302Z,937.33
2017-07-31T00:22:01.298Z,937.35
2017-07-31T00:22:14.986Z,937.34
2017-07-31T00:22:28.440Z,937.33
2017-07-31T00:22:41.390Z,937.32
2017-07-31T00:22:54.403Z,937.34
2017-07-31T00:23:07.901Z,937.29
2017-07-31T00:23:20.279Z,937.33
2017-07-31T00:23:33.748Z,937.37
2017-07-31T00:23:47.189Z,937.33
2017-07-31T00:24:00.150Z,937.31
2017-07-31T00:24:13.607Z,937.37
2017-07-31T00:24:26.637Z,937.35
2017-07-31T00:24:40.074Z,937.35
2017-07-31T00:24:53.509Z,937.35
2017-07-31T00:25:06.400Z,937.33
2017-07-31T00:25:19.818Z,937.33
2017-07-31T00:25:32.721Z,937.36
2017-07-31T00:25:46.211Z,937.36
2017-07-31T00:25:59.615Z,937.36
2017-07-31T00:26:13.088Z,937.34
2017-07-31T00:26:25.997Z,937.35
2017-07-31T00:26:39.491Z,937.36
2017-07-31T00:26:52.952Z,937.33
2017-07-31T00:27:06.491Z,937.37
2017-07-31T00:27:20.933Z,937.34
2017-07-31T00:27:34.398Z,937.35
2017-07-31T00:27:47.851Z,937.33
2017-07-31T00:28:01.309Z,937.33
2017-07-31T00:28:14.174Z,937.36
2017-07-31T00:28:27.625Z,937.31
2017-07-31T00:28:40.574Z,937.33
2017-07-31T00:28:54.047Z,937.34
2017-07-31T00:29:07.510Z,937.3
2017-07-31T00:29:21.005Z,937.32
2017-07-31T00:29:33.926Z,937.36
2017-07-31T00:29:46.856Z,937.36
2017-07-31T00:30:00.273Z,937.34
2017-07-31T00:30:13.743Z,937.35
2017-07-31T00:30:27.185Z,937.32
2017-07-31T00:30:40.637Z,937.31
2017-07-31T00:30:53.599Z,937.34
2017-07-31T00:31:07.080Z,937.31
2017-07-31T00:31:20.529Z,937.31
2017-07-31T00:31:33.465Z,937.31
2017-07-31T00:31:46.887Z,937.33
2017-07-31T00:32:00.352Z,937.3
2017-07-31T00:32:13.804Z,937.37
2017-07-31T00:32:28.057Z,937.37
2017-07-31T00:32:41.035Z,937.34
2017-07-31T00:32:54.517Z,937.33
2017-07-31T00:33:07.964Z,937.34
2017-07-31T00:33:20.893Z,937.31
2017-07-31T00:33:33.874Z,937.32
2017-07-31T00:33:47.361Z,937.32
2017-07-31T00:34:00.771Z,937.29
2017-07-31T00:34:13.751Z,937.32
2017-07-31T00:34:27.242Z,937.3
2017-07-31T00:34:40.717Z,937.34
2017-07-31T00:34:53.683Z,937.34
2017-07-31T00:35:06.566Z,937.33
2017-07-31T00:35:19.534Z,937.31
2017-07-31T00:35:32.970Z,937.3
2017-07-31T00:35:45.847Z,937.31
2017-07-31T00:35:59.297Z,937.33
2017-07-31T00:36:12.265Z,937.3
2017-07-31T00:36:25.211Z,937.34
2017-07-31T00:36:38.636Z,937.34
2017-07-31T00:36:52.067Z,937.33
2017-07-31T00:37:05.523Z,937.32
2017-07-31T00:37:18.440Z,937.32
2017-07-31T00:37:31.942Z,937.34
2017-07-31T00:37:45.400Z,937.32
2017-07-31T00:37:58.864Z,937.32
2017-07-31T00:38:12.290Z,937.34
2017-07-31T00:38:25.741Z,937.32
2017-07-31T00:38:39.187Z,937.32
2017-07-31T00:38:52.618Z,937.31
2017-07-31T00:39:05.557Z,937.31
2017-07-31T00:39:19.006Z,937.3
2017-07-31T00:39:32.473Z,937.29
2017-07-31T00:39:45.982Z,937.31
2017-07-31T00:39:59.416Z,937.26
2017-07-31T00:40:12.872Z,937.33
2017-07-31T00:40:26.279Z,937.29
2017-07-31T00:40:39.774Z,937.32
2017-07-31T00:40:53.236Z,937.31
2017-07-31T00:41:05.638Z,937.3
2017-07-31T00:41:18.534Z,937.33
2017-07-31T00:41:31.960Z,937.34
2017-07-31T00:41:45.380Z,937.33
2017-07-31T00:41:58.320Z,937.35
2017-07-31T00:42:11.741Z,937.3
2017-07-31T00:42:25.175Z,937.33
2017-07-31T00:42:37.555Z,937.34
2017-07-31T00:42:50.953Z,937.31
2017-07-31T00:43:04.373Z,937.34
2017-07-31T00:43:17.887Z,937.32
2017-07-31T00:43:31.348Z,937.36
2017-07-31T00:43:44.779Z,937.34
2017-07-31T00:43:58.205Z,937.33
2017-07-31T00:44:11.625Z,937.31
2017-07-31T00:44:23.999Z,937.33
2017-07-31T00:44:36.887Z,937.31
2017-07-31T00:44:50.400Z,937.31
2017-07-31T00:45:03.818Z,937.33
2017-07-31T00:45:17.233Z,937.29
2017-07-31T00:45:30.763Z,937.31
2017-07-31T00:45:44.226Z,937.32
2017-07-31T00:45:57.687Z,937.32
2017-07-31T00:46:10.604Z,937.3
2017-07-31T00:46:24.005Z,937.31
2017-07-31T00:46:37.378Z,937.32
2017-07-31T00:46:50.259Z,937.3
2017-07-31T00:47:03.731Z,937.29
2017-07-31T00:47:16.716Z,937.26
2017-07-31T00:47:30.268Z,937.3
2017-07-31T00:47:43.220Z,937.34
2017-07-31T00:47:56.209Z,937.29
2017-07-31T00:48:09.672Z,937.31
2017-07-31T00:48:23.091Z,937.29
2017-07-31T00:48:36.515Z,937.3
2017-07-31T00:48:49.924Z,937.29
2017-07-31T00:49:03.334Z,937.32
2017-07-31T00:49:16.738Z,937.29
2017-07-31T00:49:30.152Z,937.3
2017-07-31T00:49:43.620Z,937.27
2017-07-31T00:49:57.108Z,937.28
2017-07-31T00:50:10.636Z,937.31
2017-07-31T00:50:24.067Z,937.28
2017-07-31T00:50:37.491Z,937.29
2017-07-31T00:50:50.392Z,937.31
2017-07-31T00:51:03.862Z,937.32
2017-07-31T00:51:17.380Z,937.25
2017-07-31T00:51:30.791Z,937.31
2017-07-31T00:51:44.255Z,937.3
2017-07-31T00:51:57.181Z,937.29
2017-07-31T00:52:09.569Z,937.27
2017-07-31T00:52:23.042Z,937.29
2017-07-31T00:52:36.951Z,937.28
2017-07-31T00:52:50.433Z,937.28
2017-07-31T00:53:03.359Z,937.3
2017-07-31T00:53:16.832Z,937.32
2017-07-31T00:53:30.278Z,937.32
2017-07-31T00:53:43.766Z,937.34
2017-07-31T00:53:57.196Z,937.28
2017-07-31T00:54:10.099Z,937.3
2017-07-31T00:54:23.556Z,937.26
2017-07-31T00:54:36.972Z,937.26
2017-07-31T00:54:50.499Z,937.29
2017-07-31T00:55:03.420Z,937.26
2017-07-31T00:55:16.383Z,937.25
2017-07-31T00:55:29.846Z,937.27
2017-07-31T00:55:42.758Z,937.26
2017-07-31T00:55:56.201Z,937.25
2017-07-31T00:56:09.179Z,937.28
2017-07-31T00:56:22.634Z,937.28
2017-07-31T00:56:36.109Z,937.28
2017-07-31T00:56:49.580Z,937.29
2017-07-31T00:57:03.045Z,937.27
2017-07-31T00:57:16.518Z,937.28
2017-07-31T00:57:30.755Z,937.28
2017-07-31T00:57:44.168Z,937.26
2017-07-31T00:57:56.534Z,937.28
2017-07-31T00:58:09.994Z,937.27
2017-07-31T00:58:23.432Z,937.3
2017-07-31T00:58:36.453Z,937.26
2017-07-31T00:58:49.410Z,937.25
2017-07-31T00:59:02.887Z,937.31
2017-07-31T00:59:15.832Z,937.28
2017-07-31T00:59:29.286Z,937.26
2017-07-31T00:59:42.709Z,937.3
2017-07-31T00:59:56.103Z,937.27
2017-07-31T01:00:09.530Z,937.28
2017-07-31T01:00:23.048Z,937.29
2017-07-31T01:00:36.492Z,937.27
2017-07-31T01:00:51.436Z,937.29
2017-07-31T01:01:04.956Z,937.28
2017-07-31T01:01:18.441Z,937.28
2017-07-31T01:01:31.838Z,937.29
2017-07-31T01:01:45.241Z,937.3
2017-07-31T01:01:58.755Z,937.27
2017-07-31T01:02:11.759Z,937.3
2017-07-31T01:02:25.255Z,937.27
2017-07-31T01:02:38.486Z,937.27
2017-07-31T01:02:51.915Z,937.29
2017-07-31T01:03:04.304Z,937.3
2017-07-31T01:03:17.771Z,937.29
2017-07-31T01:03:30.736Z,937.33
2017-07-31T01:03:44.163Z,937.31
2017-07-31T01:03:57.626Z,937.31
2017-07-31T01:04:10.535Z,937.29
2017-07-31T01:04:24.033Z,937.29
2017-07-31T01:04:37.490Z,937.34
2017-07-31T01:04:50.443Z,937.28
2017-07-31T01:05:03.407Z,937.3
2017-07-31T01:05:16.863Z,937.29
2017-07-31T01:05:30.287Z,937.29
2017-07-31T01:05:43.733Z,937.3
2017-07-31T01:05:56.685Z,937.26
2017-07-31T01:06:09.614Z,937.29
2017-07-31T01:06:22.571Z,937.28
2017-07-31T01:06:35.535Z,937.27
2017-07-31T01:06:48.978Z,937.29
2017-07-31T01:07:01.877Z,937.29
2017-07-31T01:07:15.348Z,937.29
2017-07-31T01:07:28.792Z,937.28
2017-07-31T01:07:42.312Z,937.28
2017-07-31T01:07:55.763Z,937.3
2017-07-31T01:08:08.118Z,937.3
2017-07-31T01:08:21.521Z,937.29
2017-07-31T01:08:34.985Z,937.27
2017-07-31T01:08:48.460Z,937.24
2017-07-31T01:09:01.388Z,937.29
2017-07-31T01:09:13.748Z,937.25
2017-07-31T01:09:26.637Z,937.26
2017-07-31T01:09:40.125Z,937.27
2017-07-31T01:09:53.529Z,937.23
2017-07-31T01:10:06.511Z,937.26
2017-07-31T01:10:19.949Z,937.29
2017-07-31T01:10:33.401Z,937.28
2017-07-31T01:10:46.891Z,937.24
2017-07-31T01:11:00.413Z,937.26
2017-07-31T01:11:13.864Z,937.24
2017-07-31T01:11:26.753Z,937.23
2017-07-31T01:11:40.214Z,937.25
2017-07-31T01:11:53.676Z,937.25
2017-07-31T01:12:06.030Z,937.26
2017-07-31T01:12:19.507Z,937.22
2017-07-31T01:12:43.732Z,937.25
2017-07-31T01:12:56.207Z,937.24
2017-07-31T01:13:09.078Z,937.25
2017-07-31T01:13:22.581Z,937.2
2017-07-31T01:13:36.120Z,937.23
2017-07-31T01:13:49.066Z,937.23
2017-07-31T01:14:02.460Z,937.25
2017-07-31T01:14:15.373Z,937.22
2017-07-31T01:14:28.828Z,937.24
2017-07-31T01:14:42.309Z,937.26
2017-07-31T01:14:55.798Z,937.24
2017-07-31T01:15:09.295Z,937.27
2017-07-31T01:15:22.285Z,937.24
2017-07-31T01:15:35.724Z,937.26
2017-07-31T01:15:48.649Z,937.24
2017-07-31T01:16:02.160Z,937.24
2017-07-31T01:16:15.083Z,937.26
2017-07-31T01:16:28.503Z,937.27
2017-07-31T01:16:41.472Z,937.26
2017-07-31T01:16:54.930Z,937.24
2017-07-31T01:17:08.320Z,937.22
2017-07-31T01:17:21.740Z,937.24
2017-07-31T01:17:35.191Z,937.22
2017-07-31T01:17:48.243Z,937.25
2017-07-31T01:18:01.708Z,937.26
2017-07-31T01:18:14.160Z,937.23
2017-07-31T01:18:27.613Z,937.29
2017-07-31T01:18:41.082Z,937.25
2017-07-31T01:18:54.548Z,937.3
2017-07-31T01:19:07.535Z,937.24
2017-07-31T01:19:20.499Z,937.28
2017-07-31T01:19:33.954Z,937.29
2017-07-31T01:19:46.874Z,937.3
2017-07-31T01:20:00.317Z,937.21
2017-07-31T01:20:13.192Z,937.27
2017-07-31T01:20:26.168Z,937.28
2017-07-31T01:20:39.692Z,937.26
2017-07-31T01:20:53.174Z,937.28
2017-07-31T01:21:06.107Z,937.28
2017-07-31T01:21:19.547Z,937.27
2017-07-31T01:21:32.480Z,937.28
2017-07-31T01:21:45.433Z,937.28
2017-07-31T01:21:58.410Z,937.26
2017-07-31T01:22:11.309Z,937.28
2017-07-31T01:22:24.819Z,937.28
2017-07-31T01:22:38.201Z,937.3
2017-07-31T01:23:08.213Z,937.3
2017-07-31T01:23:21.631Z,937.31
2017-07-31T01:23:35.014Z,937.29
2017-07-31T01:23:48.452Z,937.29
2017-07-31T01:24:01.876Z,937.28
2017-07-31T01:24:15.263Z,937.28
2017-07-31T01:24:28.699Z,937.28
2017-07-31T01:24:41.607Z,937.28
2017-07-31T01:24:54.542Z,937.31
2017-07-31T01:25:07.449Z,937.29
2017-07-31T01:25:19.315Z,937.33
2017-07-31T01:25:32.714Z,937.26
2017-07-31T01:25:45.620Z,937.31
2017-07-31T01:25:59.056Z,937.29
2017-07-31T01:26:12.496Z,937.29
2017-07-31T01:26:25.417Z,937.3
2017-07-31T01:26:38.823Z,937.3
2017-07-31T01:26:52.308Z,937.32
2017-07-31T01:27:05.821Z,937.28
2017-07-31T01:27:18.307Z,937.29
2017-07-31T01:27:31.777Z,937.3
2017-07-31T01:27:45.175Z,937.3
2017-07-31T01:27:58.622Z,937.28
2017-07-31T01:28:11.568Z,937.32
2017-07-31T01:28:25.055Z,937.29
2017-07-31T01:28:38.485Z,937.33
2017-07-31T01:28:51.953Z,937.32
2017-07-31T01:29:05.424Z,937.31
2017-07-31T01:29:18.998Z,937.25
2017-07-31T01:29:32.710Z,937.3
2017-07-31T01:29:46.101Z,937.31
2017-07-31T01:29:58.990Z,937.32
2017-07-31T01:30:11.868Z,937.29
2017-07-31T01:30:24.771Z,937.3
2017-07-31T01:30:38.211Z,937.3
2017-07-31T01:30:51.653Z,937.3
2017-07-31T01:31:05.137Z,937.26
2017-07-31T01:31:18.601Z,937.3
2017-07-31T01:31:32.047Z,937.33
2017-07-31T01:31:45.453Z,937.32
2017-07-31T01:31:58.396Z,937.27
2017-07-31T01:32:09.749Z,937.29
2017-07-31T01:32:23.169Z,937.22
2017-07-31T01:32:36.089Z,937.27
2017-07-31T01:32:49.511Z,937.29
2017-07-31T01:33:02.987Z,937.27
2017-07-31T01:33:16.430Z,937.24
2017-07-31T01:33:29.922Z,937.24
2017-07-31T01:33:43.384Z,937.23
2017-07-31T01:33:56.369Z,937.26
2017-07-31T01:34:09.804Z,937.25
2017-07-31T01:34:22.686Z,937.25
2017-07-31T01:34:36.149Z,937.23
2017-07-31T01:34:49.661Z,937.24
2017-07-31T01:35:02.576Z,937.25
2017-07-31T01:35:16.019Z,937.25
2017-07-31T01:35:29.467Z,937.25
2017-07-31T01:35:42.886Z,937.22
2017-07-31T01:35:55.823Z,937.21
2017-07-31T01:36:09.310Z,937.21
2017-07-31T01:36:22.754Z,937.23
2017-07-31T01:36:35.660Z,937.22
2017-07-31T01:36:49.136Z,937.22
2017-07-31T01:37:02.614Z,937.18
2017-07-31T01:37:15.464Z,937.19
2017-07-31T01:37:28.905Z,937.17
2017-07-31T01:37:42.397Z,937.2
2017-07-31T01:37:55.847Z,937.17
2017-07-31T01:38:08.773Z,937.19
2017-07-31T01:38:22.912Z,937.17
2017-07-31T01:38:36.369Z,937.17
2017-07-31T01:38:49.324Z,937.17
2017-07-31T01:39:02.766Z,937.16
2017-07-31T01:39:15.682Z,937.15
2017-07-31T01:39:29.132Z,937.14
2017-07-31T01:39:42.527Z,937.18
2017-07-31T01:39:55.462Z,937.17
2017-07-31T01:40:08.946Z,937.13
2017-07-31T01:40:21.863Z,937.16
2017-07-31T01:40:34.789Z,937.13
2017-07-31T01:40:48.318Z,937.17
2017-07-31T01:41:01.766Z,937.12
2017-07-31T01:41:15.265Z,937.12
2017-07-31T01:41:28.768Z,937.12
2017-07-31T01:41:42.208Z,937.13
2017-07-31T01:41:54.578Z,937.12
2017-07-31T01:42:07.473Z,937.15
2017-07-31T01:42:20.979Z,937.15
2017-07-31T01:42:33.884Z,937.13
2017-07-31T01:42:46.892Z,937.12
2017-07-31T01:43:00.402Z,937.14
2017-07-31T01:43:13.938Z,937.15
2017-07-31T01:43:27.433Z,937.1
2017-07-31T01:43:40.958Z,937.12
2017-07-31T01:43:54.369Z,937.08
2017-07-31T01:44:07.314Z,937.08
2017-07-31T01:44:20.709Z,937.09
2017-07-31T01:44:34.110Z,937.09
2017-07-31T01:44:46.971Z,937.09
2017-07-31T01:45:00.427Z,937.1
2017-07-31T01:45:13.888Z,937.11
2017-07-31T01:45:27.339Z,937.11
2017-07-31T01:45:40.775Z,937.1
2017-07-31T01:45:53.717Z,937.08
2017-07-31T01:46:06.675Z,937.09
2017-07-31T01:46:20.134Z,937.08
2017-07-31T01:46:33.596Z,937.08
2017-07-31T01:46:47.054Z,937.06
2017-07-31T01:46:59.488Z,937.07
2017-07-31T01:47:12.969Z,937.09
2017-07-31T01:47:26.419Z,937.06
2017-07-31T01:47:39.862Z,937.09
2017-07-31T01:47:53.302Z,937.04
2017-07-31T01:48:06.233Z,937.08
2017-07-31T01:48:19.808Z,937.1
2017-07-31T01:48:33.257Z,937.06
2017-07-31T01:48:46.095Z,937.08
2017-07-31T01:48:59.537Z,937.04
2017-07-31T01:49:12.978Z,937.04
2017-07-31T01:49:26.376Z,937.05
2017-07-31T01:49:39.258Z,937.08
2017-07-31T01:49:52.245Z,937.08
2017-07-31T01:50:05.797Z,937.07
2017-07-31T01:50:18.223Z,937.02
2017-07-31T01:50:31.760Z,937.02
2017-07-31T01:50:44.684Z,937.04
2017-07-31T01:50:58.122Z,937.01
2017-07-31T01:51:11.585Z,937.06
2017-07-31T01:51:25.058Z,937.04
2017-07-31T01:51:38.510Z,937.05
2017-07-31T01:51:51.924Z,937.07
2017-07-31T01:52:05.346Z,937.03
2017-07-31T01:52:17.797Z,937.04
2017-07-31T01:52:31.229Z,937.06
2017-07-31T01:52:43.677Z,937.08
2017-07-31T01:52:56.630Z,937.05
2017-07-31T01:53:10.131Z,937.06
2017-07-31T01:53:23.576Z,937.03
2017-07-31T01:53:37.052Z,937.04
2017-07-31T01:53:50.563Z,937.05
2017-07-31T01:54:03.993Z,937.05
2017-07-31T01:54:16.985Z,937.07
2017-07-31T01:54:29.906Z,937.05
2017-07-31T01:54:43.385Z,937.05
2017-07-31T01:54:56.862Z,937.08
2017-07-31T01:55:10.378Z,937.04
2017-07-31T01:55:22.817Z,937.07
2017-07-31T01:55:35.717Z,937.03
2017-07-31T01:55:49.148Z,937.06
2017-07-31T01:56:02.627Z,937.03
2017-07-31T01:56:15.588Z,937.07
2017-07-31T01:56:28.491Z,937.04
2017-07-31T01:56:41.938Z,937.05
2017-07-31T01:56:54.783Z,937.05
2017-07-31T01:57:08.228Z,937.05
2017-07-31T01:57:21.745Z,937.06
2017-07-31T01:57:35.178Z,937.06
2017-07-31T01:57:49.987Z,937.09
2017-07-31T01:58:03.455Z,937.1
2017-07-31T01:58:16.352Z,937.02
2017-07-31T01:58:29.776Z,937.07
2017-07-31T01:58:42.690Z,937.07
2017-07-31T01:58:55.567Z,937.06
2017-07-31T01:59:08.990Z,937.07
2017-07-31T01:59:22.447Z,937.07
2017-07-31T01:59:35.877Z,937.08
2017-07-31T01:59:49.382Z,937.03
2017-07-31T02:00:02.295Z,937.04
2017-07-31T02:00:15.752Z,937.01
2017-07-31T02:00:29.181Z,937.06
2017-07-31T02:00:42.738Z,937.07
2017-07-31T02:00:56.163Z,937.03
2017-07-31T02:01:09.615Z,937.06
2017-07-31T02:01:23.061Z,937.01
2017-07-31T02:01:36.526Z,937.01
2017-07-31T02:01:49.950Z,937.03
2017-07-31T02:02:02.909Z,937.01
2017-07-31T02:02:16.342Z,937.02
2017-07-31T02:02:29.304Z,937
2017-07-31T02:02:42.811Z,937.03
2017-07-31T02:02:56.213Z,936.97
2017-07-31T02:03:09.158Z,937.04
2017-07-31T02:03:22.619Z,937.02
2017-07-31T02:03:36.111Z,937.03
2017-07-31T02:03:48.996Z,937.03
2017-07-31T02:04:01.438Z,937.02
2017-07-31T02:04:14.917Z,937.04
2017-07-31T02:04:28.385Z,937.04
2017-07-31T02:04:41.850Z,937.07
2017-07-31T02:04:55.325Z,937.03
2017-07-31T02:05:08.785Z,937.03
2017-07-31T02:05:22.255Z,937.06
2017-07-31T02:05:35.709Z,937.01
2017-07-31T02:05:48.605Z,937
2017-07-31T02:06:01.990Z,937.01
2017-07-31T02:06:15.409Z,937.03
2017-07-31T02:06:28.864Z,937.02
2017-07-31T02:06:41.856Z,937.03
2017-07-31T02:06:54.760Z,937.01
2017-07-31T02:07:08.221Z,937.02
2017-07-31T02:07:21.694Z,937
2017-07-31T02:07:35.142Z,937.03
2017-07-31T02:07:48.603Z,937
2017-07-31T02:08:02.114Z,937.02
2017-07-31T02:08:15.077Z,936.98
2017-07-31T02:08:29.311Z,936.98
2017-07-31T02:08:42.275Z,937.01
2017-07-31T02:08:55.282Z,937.03
2017-07-31T02:09:08.228Z,937.03
2017-07-31T02:09:21.635Z,937.01
2017-07-31T02:09:34.047Z,937
2017-07-31T02:09:47.517Z,937
2017-07-31T02:10:00.960Z,937
2017-07-31T02:10:14.353Z,937.02
2017-07-31T02:10:27.308Z,936.98
2017-07-31T02:10:40.754Z,937
2017-07-31T02:10:54.156Z,937
2017-07-31T02:11:07.642Z,937
2017-07-31T02:11:21.035Z,936.99
2017-07-31T02:11:33.473Z,937.02
2017-07-31T02:11:46.956Z,937.02
2017-07-31T02:12:00.352Z,936.97
2017-07-31T02:12:13.238Z,937.01
2017-07-31T02:12:26.159Z,936.98
2017-07-31T02:12:39.629Z,936.96
2017-07-31T02:12:52.521Z,936.99
2017-07-31T02:13:05.991Z,936.96
2017-07-31T02:13:18.937Z,937
2017-07-31T02:13:32.419Z,937.01
2017-07-31T02:13:45.855Z,936.96
2017-07-31T02:13:59.265Z,936.95
2017-07-31T02:14:12.646Z,936.93
2017-07-31T02:14:26.129Z,936.99
2017-07-31T02:14:39.036Z,936.97
2017-07-31T02:14:52.014Z,937
2017-07-31T02:15:05.476Z,936.99
2017-07-31T02:15:18.980Z,937.02
2017-07-31T02:15:32.514Z,936.98
2017-07-31T02:15:45.963Z,936.99
2017-07-31T02:15:59.431Z,936.98
2017-07-31T02:16:12.381Z,937.01
2017-07-31T02:16:25.356Z,936.99
2017-07-31T02:16:38.788Z,937
2017-07-31T02:16:51.699Z,936.98
2017-07-31T02:17:05.153Z,936.98
2017-07-31T02:17:18.621Z,936.98
2017-07-31T02:17:31.500Z,936.95
2017-07-31T02:17:44.948Z,936.97
2017-07-31T02:17:58.455Z,936.94
2017-07-31T02:18:11.405Z,937
2017-07-31T02:18:24.392Z,936.96
2017-07-31T02:18:37.992Z,936.96
2017-07-31T02:18:51.433Z,936.94
2017-07-31T02:19:04.875Z,936.95
2017-07-31T02:19:17.781Z,936.95
2017-07-31T02:19:31.217Z,936.98
2017-07-31T02:19:44.627Z,936.95
2017-07-31T02:19:58.016Z,936.96
2017-07-31T02:20:11.400Z,936.97
2017-07-31T02:20:24.811Z,936.94
2017-07-31T02:20:38.343Z,936.96
2017-07-31T02:20:51.824Z,936.95
2017-07-31T02:21:05.308Z,936.95
2017-07-31T02:21:18.251Z,936.94
2017-07-31T02:21:31.616Z,936.92
2017-07-31T02:21:45.053Z,936.94
2017-07-31T02:21:58.606Z,936.96
2017-07-31T02:22:12.051Z,936.99
2017-07-31T02:22:24.996Z,936.95
2017-07-31T02:22:38.463Z,936.98
2017-07-31T02:22:51.404Z,936.96
2017-07-31T02:23:04.359Z,936.93
2017-07-31T02:23:17.794Z,936.95
2017-07-31T02:23:31.537Z,936.93
2017-07-31T02:23:45.035Z,936.93
2017-07-31T02:23:58.497Z,936.93
2017-07-31T02:24:11.938Z,936.93
2017-07-31T02:24:24.904Z,936.9
2017-07-31T02:24:38.373Z,936.94
2017-07-31T02:24:51.330Z,936.91
2017-07-31T02:25:04.773Z,936.93
2017-07-31T02:25:18.277Z,936.92
2017-07-31T02:25:31.675Z,936.89
2017-07-31T02:25:44.593Z,936.92
2017-07-31T02:25:58.047Z,936.89
2017-07-31T02:26:11.432Z,936.89
2017-07-31T02:26:24.874Z,936.91
2017-07-31T02:26:38.284Z,936.89
2017-07-31T02:26:51.684Z,936.9
2017-07-31T02:27:05.083Z,936.9
2017-07-31T02:27:18.554Z,936.83
2017-07-31T02:27:32.078Z,936.88
2017-07-31T02:27:45.580Z,936.88
2017-07-31T02:27:59.114Z,936.88
2017-07-31T02:28:12.004Z,936.84
2017-07-31T02:28:25.471Z,936.86
2017-07-31T02:28:38.391Z,936.87
2017-07-31T02:28:51.335Z,936.88
2017-07-31T02:29:04.202Z,936.81
2017-07-31T02:29:17.668Z,936.83
2017-07-31T02:29:31.099Z,936.83
2017-07-31T02:29:43.971Z,936.88
2017-07-31T02:29:56.343Z,936.85
2017-07-31T02:30:08.731Z,936.84
2017-07-31T02:30:21.670Z,936.85
2017-07-31T02:30:35.126Z,936.85
2017-07-31T02:30:48.600Z,936.84
2017-07-31T02:31:02.020Z,936.84
2017-07-31T02:31:15.516Z,936.82
2017-07-31T02:31:28.520Z,936.86
2017-07-31T02:31:42.013Z,936.85
2017-07-31T02:31:55.535Z,936.88
2017-07-31T02:32:08.929Z,936.84
2017-07-31T02:32:22.369Z,936.86
2017-07-31T02:32:35.896Z,936.85
2017-07-31T02:32:48.860Z,936.85
2017-07-31T02:33:01.775Z,936.85
2017-07-31T02:33:15.269Z,936.88
2017-07-31T02:33:28.770Z,936.86
2017-07-31T02:33:41.876Z,936.83
2017-07-31T02:33:54.780Z,936.84
2017-07-31T02:34:07.687Z,936.84
2017-07-31T02:34:20.596Z,936.83
2017-07-31T02:34:34.108Z,936.87
2017-07-31T02:34:47.531Z,936.85
2017-07-31T02:35:00.455Z,936.83
2017-07-31T02:35:13.398Z,936.82
2017-07-31T02:35:26.838Z,936.82
2017-07-31T02:35:40.319Z,936.83
2017-07-31T02:35:53.702Z,936.82
2017-07-31T02:36:07.127Z,936.82
2017-07-31T02:36:20.618Z,936.79
2017-07-31T02:36:33.573Z,936.82
2017-07-31T02:36:46.551Z,936.81
2017-07-31T02:36:59.963Z,936.83
2017-07-31T02:37:12.943Z,936.83
2017-07-31T02:37:26.415Z,936.83
2017-07-31T02:37:39.850Z,936.84
2017-07-31T02:37:53.266Z,936.82
2017-07-31T02:38:06.205Z,936.82
2017-07-31T02:38:19.633Z,936.84
2017-07-31T02:38:33.076Z,936.84
2017-07-31T02:38:47.333Z,936.83
2017-07-31T02:39:00.780Z,936.86
2017-07-31T02:39:14.290Z,936.84
2017-07-31T02:39:27.722Z,936.86
2017-07-31T02:39:40.675Z,936.84
2017-07-31T02:39:54.105Z,936.86
2017-07-31T02:40:07.590Z,936.84
2017-07-31T02:40:21.050Z,936.83
2017-07-31T02:40:34.502Z,936.85
2017-07-31T02:40:47.952Z,936.83
2017-07-31T02:41:00.846Z,936.84
2017-07-31T02:41:14.253Z,936.84
2017-07-31T02:41:27.645Z,936.84
2017-07-31T02:41:41.113Z,936.83
2017-07-31T02:41:54.043Z,936.83
2017-07-31T02:42:07.446Z,936.82
2017-07-31T02:42:20.372Z,936.82
2017-07-31T02:42:33.344Z,936.8
2017-07-31T02:42:46.806Z,936.83
2017-07-31T02:43:00.353Z,936.81
2017-07-31T02:43:13.827Z,936.81
2017-07-31T02:43:27.277Z,936.81
2017-07-31T02:43:40.696Z,936.81
2017-07-31T02:43:54.253Z,936.81
2017-07-31T02:44:07.161Z,936.8
2017-07-31T02:44:20.044Z,936.78
2017-07-31T02:44:33.581Z,936.8
2017-07-31T02:44:48.285Z,936.81
2017-07-31T02:45:01.263Z,936.82
2017-07-31T02:45:14.170Z,936.85
2017-07-31T02:45:27.063Z,936.8
2017-07-31T02:45:39.972Z,936.83
2017-07-31T02:45:53.442Z,936.79
2017-07-31T02:46:06.906Z,936.81
2017-07-31T02:46:19.878Z,936.82
2017-07-31T02:46:33.363Z,936.82
2017-07-31T02:46:46.811Z,936.85